sensor_id;sensor_type;location;lat;lon;timestamp;temperature;humidity
15013;DHT22;7603;49.432;11.418;2023-07-08T00:01:35;14.50;85.40
15013;DHT22;7603;49.432;11.418;2023-07-08T00:04:00;14.50;85.80
15013;DHT22;7603;49.432;11.418;2023-07-08T00:06:28;14.50;86.10
15013;DHT22;7603;49.432;11.418;2023-07-08T00:08:54;14.50;86.20
15013;DHT22;7603;49.432;11.418;2023-07-08T00:11:19;14.50;86.40
15013;DHT22;7603;49.432;11.418;2023-07-08T00:13:45;14.50;86.20
15013;DHT22;7603;49.432;11.418;2023-07-08T00:16:16;14.50;86.70
15013;DHT22;7603;49.432;11.418;2023-07-08T00:18:42;14.50;86.30
15013;DHT22;7603;49.432;11.418;2023-07-08T00:21:13;14.40;86.80
15013;DHT22;7603;49.432;11.418;2023-07-08T00:23:46;14.30;86.40
15013;DHT22;7603;49.432;11.418;2023-07-08T00:26:24;14.50;86.80
15013;DHT22;7603;49.432;11.418;2023-07-08T00:28:51;14.50;85.70
15013;DHT22;7603;49.432;11.418;2023-07-08T00:31:17;14.50;85.70
15013;DHT22;7603;49.432;11.418;2023-07-08T00:33:52;14.50;86.20
15013;DHT22;7603;49.432;11.418;2023-07-08T00:36:20;14.50;86.40
15013;DHT22;7603;49.432;11.418;2023-07-08T00:38:46;14.50;86.80
15013;DHT22;7603;49.432;11.418;2023-07-08T00:41:38;14.60;86.80
15013;DHT22;7603;49.432;11.418;2023-07-08T00:44:11;14.50;85.20
15013;DHT22;7603;49.432;11.418;2023-07-08T00:52:20;14.50;85.00
15013;DHT22;7603;49.432;11.418;2023-07-08T00:54:49;14.60;85.00
15013;DHT22;7603;49.432;11.418;2023-07-08T00:57:15;14.70;84.10
15013;DHT22;7603;49.432;11.418;2023-07-08T00:59:55;14.70;84.00
15013;DHT22;7603;49.432;11.418;2023-07-08T01:02:25;14.60;83.10
15013;DHT22;7603;49.432;11.418;2023-07-08T01:04:58;14.60;83.00
15013;DHT22;7603;49.432;11.418;2023-07-08T01:07:26;14.60;83.20
15013;DHT22;7603;49.432;11.418;2023-07-08T01:10:06;14.70;83.60
15013;DHT22;7603;49.432;11.418;2023-07-08T01:12:37;14.60;84.20
15013;DHT22;7603;49.432;11.418;2023-07-08T01:15:07;14.70;83.20
15013;DHT22;7603;49.432;11.418;2023-07-08T01:17:33;14.70;82.80
15013;DHT22;7603;49.432;11.418;2023-07-08T01:20:03;14.70;82.70
15013;DHT22;7603;49.432;11.418;2023-07-08T01:22:35;14.70;82.90
15013;DHT22;7603;49.432;11.418;2023-07-08T01:25:02;14.80;83.00
15013;DHT22;7603;49.432;11.418;2023-07-08T01:27:30;14.70;83.00
15013;DHT22;7603;49.432;11.418;2023-07-08T01:29:58;14.60;83.00
15013;DHT22;7603;49.432;11.418;2023-07-08T01:32:24;14.70;83.30
15013;DHT22;7603;49.432;11.418;2023-07-08T01:34:58;14.70;82.90
15013;DHT22;7603;49.432;11.418;2023-07-08T01:37:38;14.90;82.80
15013;DHT22;7603;49.432;11.418;2023-07-08T01:40:37;14.80;82.70
15013;DHT22;7603;49.432;11.418;2023-07-08T01:43:05;14.90;82.50
15013;DHT22;7603;49.432;11.418;2023-07-08T01:45:34;14.90;82.40
15013;DHT22;7603;49.432;11.418;2023-07-08T01:48:05;14.90;82.40
15013;DHT22;7603;49.432;11.418;2023-07-08T01:50:32;15.00;82.90
15013;DHT22;7603;49.432;11.418;2023-07-08T01:53:02;15.00;82.90
15013;DHT22;7603;49.432;11.418;2023-07-08T01:55:32;15.00;83.20
15013;DHT22;7603;49.432;11.418;2023-07-08T01:57:58;15.00;83.20
15013;DHT22;7603;49.432;11.418;2023-07-08T02:00:23;15.00;83.40
15013;DHT22;7603;49.432;11.418;2023-07-08T02:02:50;15.00;82.70
15013;DHT22;7603;49.432;11.418;2023-07-08T02:05:16;15.10;83.20
15013;DHT22;7603;49.432;11.418;2023-07-08T02:07:41;15.10;83.20
15013;DHT22;7603;49.432;11.418;2023-07-08T02:10:07;15.10;83.60
15013;DHT22;7603;49.432;11.418;2023-07-08T02:12:33;15.10;83.60
15013;DHT22;7603;49.432;11.418;2023-07-08T02:15:02;15.10;84.00
15013;DHT22;7603;49.432;11.418;2023-07-08T02:17:28;15.10;84.10
15013;DHT22;7603;49.432;11.418;2023-07-08T02:19:55;15.10;84.50
15013;DHT22;7603;49.432;11.418;2023-07-08T02:22:20;15.10;84.70
15013;DHT22;7603;49.432;11.418;2023-07-08T02:24:46;15.10;85.30
15013;DHT22;7603;49.432;11.418;2023-07-08T02:27:11;15.10;85.40
15013;DHT22;7603;49.432;11.418;2023-07-08T02:29:37;15.10;85.40
15013;DHT22;7603;49.432;11.418;2023-07-08T02:32:04;15.10;85.00
15013;DHT22;7603;49.432;11.418;2023-07-08T02:34:29;15.20;85.00
15013;DHT22;7603;49.432;11.418;2023-07-08T02:36:55;15.20;85.40
15013;DHT22;7603;49.432;11.418;2023-07-08T02:39:22;15.20;86.10
15013;DHT22;7603;49.432;11.418;2023-07-08T02:41:48;15.10;86.10
15013;DHT22;7603;49.432;11.418;2023-07-08T02:44:13;15.20;86.10
15013;DHT22;7603;49.432;11.418;2023-07-08T02:46:39;15.20;86.60
15013;DHT22;7603;49.432;11.418;2023-07-08T02:49:04;15.10;86.90
15013;DHT22;7603;49.432;11.418;2023-07-08T02:51:31;15.10;87.60
15013;DHT22;7603;49.432;11.418;2023-07-08T02:53:56;15.10;88.10
15013;DHT22;7603;49.432;11.418;2023-07-08T02:56:22;15.00;87.50
15013;DHT22;7603;49.432;11.418;2023-07-08T02:58:48;15.00;87.90
15013;DHT22;7603;49.432;11.418;2023-07-08T03:01:14;15.00;88.60
15013;DHT22;7603;49.432;11.418;2023-07-08T03:03:46;14.90;89.40
15013;DHT22;7603;49.432;11.418;2023-07-08T03:06:12;14.90;89.80
15013;DHT22;7603;49.432;11.418;2023-07-08T03:08:38;14.80;90.00
15013;DHT22;7603;49.432;11.418;2023-07-08T03:11:05;14.80;90.20
15013;DHT22;7603;49.432;11.418;2023-07-08T03:13:32;14.80;90.50
15013;DHT22;7603;49.432;11.418;2023-07-08T03:16:00;14.70;90.80
15013;DHT22;7603;49.432;11.418;2023-07-08T03:18:26;14.70;90.70
15013;DHT22;7603;49.432;11.418;2023-07-08T03:20:53;14.70;91.10
15013;DHT22;7603;49.432;11.418;2023-07-08T03:23:21;14.60;91.10
15013;DHT22;7603;49.432;11.418;2023-07-08T03:25:47;14.60;91.20
15013;DHT22;7603;49.432;11.418;2023-07-08T03:28:13;14.60;91.30
15013;DHT22;7603;49.432;11.418;2023-07-08T03:30:43;14.60;91.10
15013;DHT22;7603;49.432;11.418;2023-07-08T03:33:09;14.60;91.50
15013;DHT22;7603;49.432;11.418;2023-07-08T03:35:35;14.70;91.50
15013;DHT22;7603;49.432;11.418;2023-07-08T03:38:02;14.60;91.50
15013;DHT22;7603;49.432;11.418;2023-07-08T03:40:28;14.60;91.70
15013;DHT22;7603;49.432;11.418;2023-07-08T03:42:53;14.60;91.80
15013;DHT22;7603;49.432;11.418;2023-07-08T03:45:19;14.60;92.10
15013;DHT22;7603;49.432;11.418;2023-07-08T03:47:44;14.60;92.40
15013;DHT22;7603;49.432;11.418;2023-07-08T03:50:39;14.50;92.60
15013;DHT22;7603;49.432;11.418;2023-07-08T03:53:05;14.50;93.10
15013;DHT22;7603;49.432;11.418;2023-07-08T03:55:30;14.50;93.10
15013;DHT22;7603;49.432;11.418;2023-07-08T03:57:56;14.50;93.10
15013;DHT22;7603;49.432;11.418;2023-07-08T04:00:22;14.50;93.40
15013;DHT22;7603;49.432;11.418;2023-07-08T04:02:48;14.50;93.60
15013;DHT22;7603;49.432;11.418;2023-07-08T04:05:16;14.60;93.70
15013;DHT22;7603;49.432;11.418;2023-07-08T04:07:42;14.60;93.90
15013;DHT22;7603;49.432;11.418;2023-07-08T04:10:09;14.60;94.20
15013;DHT22;7603;49.432;11.418;2023-07-08T04:12:35;14.60;94.40
15013;DHT22;7603;49.432;11.418;2023-07-08T04:15:02;14.70;94.40
15013;DHT22;7603;49.432;11.418;2023-07-08T04:17:27;14.70;94.50
15013;DHT22;7603;49.432;11.418;2023-07-08T04:19:53;14.80;94.80
15013;DHT22;7603;49.432;11.418;2023-07-08T04:22:22;14.80;94.80
15013;DHT22;7603;49.432;11.418;2023-07-08T04:24:48;14.80;94.90
15013;DHT22;7603;49.432;11.418;2023-07-08T04:27:15;14.80;94.80
15013;DHT22;7603;49.432;11.418;2023-07-08T04:29:42;14.90;95.10
15013;DHT22;7603;49.432;11.418;2023-07-08T04:32:07;14.90;95.10
15013;DHT22;7603;49.432;11.418;2023-07-08T04:34:33;15.00;95.20
15013;DHT22;7603;49.432;11.418;2023-07-08T04:36:59;15.00;95.40
15013;DHT22;7603;49.432;11.418;2023-07-08T04:39:24;15.10;95.70
15013;DHT22;7603;49.432;11.418;2023-07-08T04:41:50;15.10;95.60
15013;DHT22;7603;49.432;11.418;2023-07-08T04:44:15;15.10;95.70
15013;DHT22;7603;49.432;11.418;2023-07-08T04:46:56;15.30;96.00
15013;DHT22;7603;49.432;11.418;2023-07-08T04:49:23;15.40;96.00
15013;DHT22;7603;49.432;11.418;2023-07-08T04:51:49;15.50;96.10
15013;DHT22;7603;49.432;11.418;2023-07-08T04:54:14;15.60;96.50
15013;DHT22;7603;49.432;11.418;2023-07-08T04:56:43;15.70;96.00
15013;DHT22;7603;49.432;11.418;2023-07-08T04:59:10;15.80;96.20
15013;DHT22;7603;49.432;11.418;2023-07-08T05:01:36;15.90;96.60
15013;DHT22;7603;49.432;11.418;2023-07-08T05:04:03;16.00;96.20
15013;DHT22;7603;49.432;11.418;2023-07-08T05:06:30;16.20;95.90
15013;DHT22;7603;49.432;11.418;2023-07-08T05:08:57;16.30;95.30
15013;DHT22;7603;49.432;11.418;2023-07-08T05:11:23;16.40;94.20
15013;DHT22;7603;49.432;11.418;2023-07-08T05:13:48;16.60;92.70
15013;DHT22;7603;49.432;11.418;2023-07-08T05:16:14;16.90;91.10
15013;DHT22;7603;49.432;11.418;2023-07-08T05:18:39;17.10;89.00
15013;DHT22;7603;49.432;11.418;2023-07-08T05:21:05;17.30;86.10
15013;DHT22;7603;49.432;11.418;2023-07-08T05:23:31;17.60;84.20
15013;DHT22;7603;49.432;11.418;2023-07-08T05:26:00;17.90;81.80
15013;DHT22;7603;49.432;11.418;2023-07-08T05:28:26;18.10;79.70
15013;DHT22;7603;49.432;11.418;2023-07-08T05:30:55;18.30;78.10
15013;DHT22;7603;49.432;11.418;2023-07-08T05:33:22;18.60;77.40
15013;DHT22;7603;49.432;11.418;2023-07-08T05:35:48;18.70;76.90
15013;DHT22;7603;49.432;11.418;2023-07-08T05:38:13;19.00;76.00
15013;DHT22;7603;49.432;11.418;2023-07-08T05:40:39;19.20;73.20
15013;DHT22;7603;49.432;11.418;2023-07-08T05:43:04;19.40;72.50
15013;DHT22;7603;49.432;11.418;2023-07-08T05:45:30;19.60;71.80
15013;DHT22;7603;49.432;11.418;2023-07-08T05:47:56;19.80;70.70
15013;DHT22;7603;49.432;11.418;2023-07-08T05:50:21;20.00;69.10
15013;DHT22;7603;49.432;11.418;2023-07-08T05:52:47;20.20;67.90
15013;DHT22;7603;49.432;11.418;2023-07-08T05:55:13;20.50;66.50
15013;DHT22;7603;49.432;11.418;2023-07-08T05:57:38;20.60;66.40
15013;DHT22;7603;49.432;11.418;2023-07-08T06:00:05;20.90;65.90
15013;DHT22;7603;49.432;11.418;2023-07-08T06:02:31;21.00;64.10
15013;DHT22;7603;49.432;11.418;2023-07-08T06:04:56;21.20;63.60
15013;DHT22;7603;49.432;11.418;2023-07-08T06:07:22;21.40;62.60
15013;DHT22;7603;49.432;11.418;2023-07-08T06:09:48;21.60;61.30
15013;DHT22;7603;49.432;11.418;2023-07-08T06:12:13;21.70;60.30
15013;DHT22;7603;49.432;11.418;2023-07-08T06:14:39;21.90;59.60
15013;DHT22;7603;49.432;11.418;2023-07-08T06:17:05;22.00;58.30
15013;DHT22;7603;49.432;11.418;2023-07-08T06:19:30;22.20;57.90
15013;DHT22;7603;49.432;11.418;2023-07-08T06:21:56;22.30;58.50
15013;DHT22;7603;49.432;11.418;2023-07-08T06:24:22;22.50;58.80
15013;DHT22;7603;49.432;11.418;2023-07-08T06:26:47;22.60;59.70
15013;DHT22;7603;49.432;11.418;2023-07-08T06:29:13;22.80;57.90
15013;DHT22;7603;49.432;11.418;2023-07-08T06:31:38;23.00;57.20
15013;DHT22;7603;49.432;11.418;2023-07-08T06:34:04;23.20;57.00
15013;DHT22;7603;49.432;11.418;2023-07-08T06:36:30;23.30;57.00
15013;DHT22;7603;49.432;11.418;2023-07-08T06:38:56;23.50;55.70
15013;DHT22;7603;49.432;11.418;2023-07-08T06:41:21;23.60;55.00
15013;DHT22;7603;49.432;11.418;2023-07-08T06:43:47;23.70;55.70
15013;DHT22;7603;49.432;11.418;2023-07-08T06:46:13;23.90;54.50
15013;DHT22;7603;49.432;11.418;2023-07-08T06:48:39;24.00;54.00
15013;DHT22;7603;49.432;11.418;2023-07-08T06:51:04;24.10;53.90
15013;DHT22;7603;49.432;11.418;2023-07-08T06:53:30;24.30;53.10
15013;DHT22;7603;49.432;11.418;2023-07-08T06:55:56;24.40;53.20
15013;DHT22;7603;49.432;11.418;2023-07-08T06:58:21;24.50;52.30
15013;DHT22;7603;49.432;11.418;2023-07-08T07:00:47;24.60;51.50
15013;DHT22;7603;49.432;11.418;2023-07-08T07:03:12;24.70;51.70
15013;DHT22;7603;49.432;11.418;2023-07-08T07:05:38;24.80;51.00
15013;DHT22;7603;49.432;11.418;2023-07-08T07:08:04;24.90;50.80
15013;DHT22;7603;49.432;11.418;2023-07-08T07:10:30;25.00;50.40
15013;DHT22;7603;49.432;11.418;2023-07-08T07:12:56;25.10;50.20
15013;DHT22;7603;49.432;11.418;2023-07-08T07:15:21;25.10;49.50
15013;DHT22;7603;49.432;11.418;2023-07-08T07:17:47;25.30;49.00
15013;DHT22;7603;49.432;11.418;2023-07-08T07:20:13;25.40;49.10
15013;DHT22;7603;49.432;11.418;2023-07-08T07:22:39;25.40;48.90
15013;DHT22;7603;49.432;11.418;2023-07-08T07:25:05;25.50;48.50
15013;DHT22;7603;49.432;11.418;2023-07-08T07:27:30;25.60;48.50
15013;DHT22;7603;49.432;11.418;2023-07-08T07:29:56;25.70;47.90
15013;DHT22;7603;49.432;11.418;2023-07-08T07:32:24;25.80;47.80
15013;DHT22;7603;49.432;11.418;2023-07-08T07:34:50;25.90;47.40
15013;DHT22;7603;49.432;11.418;2023-07-08T07:37:18;26.00;46.90
15013;DHT22;7603;49.432;11.418;2023-07-08T07:39:44;26.00;46.90
15013;DHT22;7603;49.432;11.418;2023-07-08T07:42:11;26.10;46.40
15013;DHT22;7603;49.432;11.418;2023-07-08T07:44:37;26.30;46.30
15013;DHT22;7603;49.432;11.418;2023-07-08T07:47:08;26.30;45.90
15013;DHT22;7603;49.432;11.418;2023-07-08T07:49:37;26.40;45.40
15013;DHT22;7603;49.432;11.418;2023-07-08T07:52:03;26.50;45.10
15013;DHT22;7603;49.432;11.418;2023-07-08T07:54:29;26.60;45.10
15013;DHT22;7603;49.432;11.418;2023-07-08T07:56:55;26.70;44.40
15013;DHT22;7603;49.432;11.418;2023-07-08T07:59:21;26.80;44.10
15013;DHT22;7603;49.432;11.418;2023-07-08T08:01:49;26.90;43.70
15013;DHT22;7603;49.432;11.418;2023-07-08T08:04:15;27.00;43.00
15013;DHT22;7603;49.432;11.418;2023-07-08T08:06:43;27.10;42.50
15013;DHT22;7603;49.432;11.418;2023-07-08T08:09:09;27.10;42.80
15013;DHT22;7603;49.432;11.418;2023-07-08T08:11:35;27.20;42.80
15013;DHT22;7603;49.432;11.418;2023-07-08T08:14:01;27.30;42.30
15013;DHT22;7603;49.432;11.418;2023-07-08T08:16:27;27.40;42.10
15013;DHT22;7603;49.432;11.418;2023-07-08T08:18:52;27.60;41.50
15013;DHT22;7603;49.432;11.418;2023-07-08T08:21:18;27.70;41.00
15013;DHT22;7603;49.432;11.418;2023-07-08T08:23:44;27.80;41.00
15013;DHT22;7603;49.432;11.418;2023-07-08T08:26:09;27.90;41.40
15013;DHT22;7603;49.432;11.418;2023-07-08T08:28:35;28.10;40.80
15013;DHT22;7603;49.432;11.418;2023-07-08T08:31:00;28.20;40.10
15013;DHT22;7603;49.432;11.418;2023-07-08T08:33:26;28.30;39.00
15013;DHT22;7603;49.432;11.418;2023-07-08T08:35:52;28.30;39.10
15013;DHT22;7603;49.432;11.418;2023-07-08T08:38:17;28.40;39.30
15013;DHT22;7603;49.432;11.418;2023-07-08T08:40:43;28.50;39.20
15013;DHT22;7603;49.432;11.418;2023-07-08T08:43:19;28.50;38.50
15013;DHT22;7603;49.432;11.418;2023-07-08T08:46:02;28.60;38.80
15013;DHT22;7603;49.432;11.418;2023-07-08T08:48:32;28.80;37.90
15013;DHT22;7603;49.432;11.418;2023-07-08T08:51:05;28.80;37.40
15013;DHT22;7603;49.432;11.418;2023-07-08T08:53:32;28.90;37.20
15013;DHT22;7603;49.432;11.418;2023-07-08T08:56:05;29.00;36.80
15013;DHT22;7603;49.432;11.418;2023-07-08T08:58:43;29.00;37.00
15013;DHT22;7603;49.432;11.418;2023-07-08T09:01:13;29.10;37.10
15013;DHT22;7603;49.432;11.418;2023-07-08T09:06:25;29.20;36.60
15013;DHT22;7603;49.432;11.418;2023-07-08T09:08:52;29.30;36.30
15013;DHT22;7603;49.432;11.418;2023-07-08T09:14:28;29.60;36.00
15013;DHT22;7603;49.432;11.418;2023-07-08T09:19:41;29.90;35.50
15013;DHT22;7603;49.432;11.418;2023-07-08T09:22:20;30.00;35.00
15013;DHT22;7603;49.432;11.418;2023-07-08T09:24:50;30.20;34.80
15013;DHT22;7603;49.432;11.418;2023-07-08T09:27:17;30.50;34.10
15013;DHT22;7603;49.432;11.418;2023-07-08T09:29:42;30.90;33.80
15013;DHT22;7603;49.432;11.418;2023-07-08T09:32:20;31.20;32.90
15013;DHT22;7603;49.432;11.418;2023-07-08T09:34:51;31.50;32.10
15013;DHT22;7603;49.432;11.418;2023-07-08T09:37:26;31.50;31.80
15013;DHT22;7603;49.432;11.418;2023-07-08T09:39:55;31.50;31.70
15013;DHT22;7603;49.432;11.418;2023-07-08T09:42:22;31.50;32.20
15013;DHT22;7603;49.432;11.418;2023-07-08T09:44:57;31.40;32.30
15013;DHT22;7603;49.432;11.418;2023-07-08T09:47:27;31.50;32.30
15013;DHT22;7603;49.432;11.418;2023-07-08T09:49:59;31.50;31.70
15013;DHT22;7603;49.432;11.418;2023-07-08T09:52:25;31.60;32.00
15013;DHT22;7603;49.432;11.418;2023-07-08T09:54:51;31.80;31.70
15013;DHT22;7603;49.432;11.418;2023-07-08T09:57:29;31.80;30.90
15013;DHT22;7603;49.432;11.418;2023-07-08T10:00:02;31.80;31.00
15013;DHT22;7603;49.432;11.418;2023-07-08T10:02:58;31.90;30.10
15013;DHT22;7603;49.432;11.418;2023-07-08T10:05:32;32.10;29.60
15013;DHT22;7603;49.432;11.418;2023-07-08T10:07:59;32.30;29.80
15013;DHT22;7603;49.432;11.418;2023-07-08T10:10:32;32.50;29.80
15013;DHT22;7603;49.432;11.418;2023-07-08T10:13:15;32.60;29.60
15013;DHT22;7603;49.432;11.418;2023-07-08T10:16:30;32.80;29.90
15013;DHT22;7603;49.432;11.418;2023-07-08T10:18:30;33.00;29.50
15013;DHT22;7603;49.432;11.418;2023-07-08T10:21:31;33.00;29.20
15013;DHT22;7603;49.432;11.418;2023-07-08T10:26:45;32.90;29.10
15013;DHT22;7603;49.432;11.418;2023-07-08T10:40:01;34.20;27.00
15013;DHT22;7603;49.432;11.418;2023-07-08T10:42:41;34.70;26.50
15013;DHT22;7603;49.432;11.418;2023-07-08T10:45:28;35.40;26.10
15013;DHT22;7603;49.432;11.418;2023-07-08T10:48:15;36.60;24.70
15013;DHT22;7603;49.432;11.418;2023-07-08T10:54:05;38.70;23.90
15013;DHT22;7603;49.432;11.418;2023-07-08T10:59:56;41.40;21.10
15013;DHT22;7603;49.432;11.418;2023-07-08T11:05:44;43.80;19.90
15013;DHT22;7603;49.432;11.418;2023-07-08T11:08:22;45.60;18.40
15013;DHT22;7603;49.432;11.418;2023-07-08T11:10:56;47.00;18.30
15013;DHT22;7603;49.432;11.418;2023-07-08T11:13:25;47.90;18.00
15013;DHT22;7603;49.432;11.418;2023-07-08T11:16:12;48.30;17.60
15013;DHT22;7603;49.432;11.418;2023-07-08T11:18:47;48.90;16.50
15013;DHT22;7603;49.432;11.418;2023-07-08T11:21:20;49.50;16.40
15013;DHT22;7603;49.432;11.418;2023-07-08T11:24:10;49.60;16.40
15013;DHT22;7603;49.432;11.418;2023-07-08T11:29:15;48.80;16.50
15013;DHT22;7603;49.432;11.418;2023-07-08T11:31:42;48.00;16.40
15013;DHT22;7603;49.432;11.418;2023-07-08T11:34:10;47.20;16.60
15013;DHT22;7603;49.432;11.418;2023-07-08T11:36:37;46.60;16.60
15013;DHT22;7603;49.432;11.418;2023-07-08T11:39:05;46.00;17.30
15013;DHT22;7603;49.432;11.418;2023-07-08T11:41:53;45.30;17.70
15013;DHT22;7603;49.432;11.418;2023-07-08T11:44:29;44.50;18.00
15013;DHT22;7603;49.432;11.418;2023-07-08T11:46:58;44.00;18.40
15013;DHT22;7603;49.432;11.418;2023-07-08T11:49:24;43.30;18.50
15013;DHT22;7603;49.432;11.418;2023-07-08T11:51:50;42.90;18.80
15013;DHT22;7603;49.432;11.418;2023-07-08T11:54:30;42.50;18.80
15013;DHT22;7603;49.432;11.418;2023-07-08T11:57:23;42.20;19.50
15013;DHT22;7603;49.432;11.418;2023-07-08T12:00:10;41.90;19.40
15013;DHT22;7603;49.432;11.418;2023-07-08T12:03:03;41.40;19.40
15013;DHT22;7603;49.432;11.418;2023-07-08T12:05:31;41.00;19.90
15013;DHT22;7603;49.432;11.418;2023-07-08T12:07:58;40.70;20.10
15013;DHT22;7603;49.432;11.418;2023-07-08T12:10:32;40.50;20.00
15013;DHT22;7603;49.432;11.418;2023-07-08T12:12:58;40.70;19.80
15013;DHT22;7603;49.432;11.418;2023-07-08T12:15:31;41.20;19.80
15013;DHT22;7603;49.432;11.418;2023-07-08T12:18:13;42.00;19.80
15013;DHT22;7603;49.432;11.418;2023-07-08T12:20:41;42.30;19.30
15013;DHT22;7603;49.432;11.418;2023-07-08T12:23:15;42.30;19.60
15013;DHT22;7603;49.432;11.418;2023-07-08T12:25:41;42.10;19.60
15013;DHT22;7603;49.432;11.418;2023-07-08T12:28:06;41.80;20.20
15013;DHT22;7603;49.432;11.418;2023-07-08T12:30:32;41.60;20.30
15013;DHT22;7603;49.432;11.418;2023-07-08T12:33:00;41.80;20.30
15013;DHT22;7603;49.432;11.418;2023-07-08T12:35:31;42.50;20.20
15013;DHT22;7603;49.432;11.418;2023-07-08T12:38:55;43.70;19.60
15013;DHT22;7603;49.432;11.418;2023-07-08T12:40:58;45.00;18.40
15013;DHT22;7603;49.432;11.418;2023-07-08T12:43:24;45.90;18.20
15013;DHT22;7603;49.432;11.418;2023-07-08T12:45:49;46.20;18.10
15013;DHT22;7603;49.432;11.418;2023-07-08T12:48:15;45.90;17.70
15013;DHT22;7603;49.432;11.418;2023-07-08T12:50:40;45.40;17.90
15013;DHT22;7603;49.432;11.418;2023-07-08T12:53:06;45.00;18.00
15013;DHT22;7603;49.432;11.418;2023-07-08T12:55:37;44.70;18.30
15013;DHT22;7603;49.432;11.418;2023-07-08T12:58:04;44.80;18.50
15013;DHT22;7603;49.432;11.418;2023-07-08T13:00:38;45.60;18.70
15013;DHT22;7603;49.432;11.418;2023-07-08T13:03:16;47.00;18.20
15013;DHT22;7603;49.432;11.418;2023-07-08T13:05:44;48.90;17.00
15013;DHT22;7603;49.432;11.418;2023-07-08T13:08:13;50.40;16.40
15013;DHT22;7603;49.432;11.418;2023-07-08T13:10:40;51.30;16.00
15013;DHT22;7603;49.432;11.418;2023-07-08T13:13:10;52.40;15.80
15013;DHT22;7603;49.432;11.418;2023-07-08T13:15:39;53.30;15.40
15013;DHT22;7603;49.432;11.418;2023-07-08T13:18:53;53.70;15.30
15013;DHT22;7603;49.432;11.418;2023-07-08T13:20:54;52.80;15.50
15013;DHT22;7603;49.432;11.418;2023-07-08T13:23:21;51.30;15.60
15013;DHT22;7603;49.432;11.418;2023-07-08T13:25:51;50.60;15.80
15013;DHT22;7603;49.432;11.418;2023-07-08T13:28:36;50.90;15.80
15013;DHT22;7603;49.432;11.418;2023-07-08T13:31:12;51.70;15.30
15013;DHT22;7603;49.432;11.418;2023-07-08T13:33:44;51.90;15.50
15013;DHT22;7603;49.432;11.418;2023-07-08T13:36:10;52.40;15.80
15013;DHT22;7603;49.432;11.418;2023-07-08T13:38:38;53.50;15.40
15013;DHT22;7603;49.432;11.418;2023-07-08T13:41:05;54.90;14.80
15013;DHT22;7603;49.432;11.418;2023-07-08T13:43:33;56.30;14.70
15013;DHT22;7603;49.432;11.418;2023-07-08T13:46:00;56.80;14.40
15013;DHT22;7603;49.432;11.418;2023-07-08T13:48:40;57.10;14.40
15013;DHT22;7603;49.432;11.418;2023-07-08T13:51:14;57.50;13.90
15013;DHT22;7603;49.432;11.418;2023-07-08T13:56:31;57.30;13.90
15013;DHT22;7603;49.432;11.418;2023-07-08T13:59:05;55.80;14.10
15013;DHT22;7603;49.432;11.418;2023-07-08T14:01:36;54.00;14.50
15013;DHT22;7603;49.432;11.418;2023-07-08T14:04:03;52.90;15.30
15013;DHT22;7603;49.432;11.418;2023-07-08T14:06:35;52.50;15.40
15013;DHT22;7603;49.432;11.418;2023-07-08T14:09:12;52.60;15.60
15013;DHT22;7603;49.432;11.418;2023-07-08T14:11:39;53.10;15.40
15013;DHT22;7603;49.432;11.418;2023-07-08T14:14:04;54.20;15.30
15013;DHT22;7603;49.432;11.418;2023-07-08T14:16:31;55.50;14.80
15013;DHT22;7603;49.432;11.418;2023-07-08T14:19:00;55.70;14.50
15013;DHT22;7603;49.432;11.418;2023-07-08T14:21:29;55.40;14.70
15013;DHT22;7603;49.432;11.418;2023-07-08T14:23:55;54.70;14.80
15013;DHT22;7603;49.432;11.418;2023-07-08T14:26:20;54.70;14.80
15013;DHT22;7603;49.432;11.418;2023-07-08T14:28:46;55.50;14.70
15013;DHT22;7603;49.432;11.418;2023-07-08T14:31:14;56.00;14.60
15013;DHT22;7603;49.432;11.418;2023-07-08T14:33:41;56.80;14.40
15013;DHT22;7603;49.432;11.418;2023-07-08T14:36:10;57.50;14.10
15013;DHT22;7603;49.432;11.418;2023-07-08T14:38:37;57.70;13.60
15013;DHT22;7603;49.432;11.418;2023-07-08T14:41:03;57.20;13.80
15013;DHT22;7603;49.432;11.418;2023-07-08T14:43:31;56.60;14.10
15013;DHT22;7603;49.432;11.418;2023-07-08T14:46:00;56.00;14.40
15013;DHT22;7603;49.432;11.418;2023-07-08T14:48:28;54.80;14.70
15013;DHT22;7603;49.432;11.418;2023-07-08T14:50:54;53.00;15.10
15013;DHT22;7603;49.432;11.418;2023-07-08T14:53:19;51.10;15.90
15013;DHT22;7603;49.432;11.418;2023-07-08T14:55:48;50.10;16.00
15013;DHT22;7603;49.432;11.418;2023-07-08T14:58:33;49.80;16.30
15013;DHT22;7603;49.432;11.418;2023-07-08T15:01:09;51.10;17.00
15013;DHT22;7603;49.432;11.418;2023-07-08T15:03:37;53.10;16.80
15013;DHT22;7603;49.432;11.418;2023-07-08T15:06:02;55.00;16.00
15013;DHT22;7603;49.432;11.418;2023-07-08T15:08:30;56.40;15.30
15013;DHT22;7603;49.432;11.418;2023-07-08T15:10:59;57.40;14.40
15013;DHT22;7603;49.432;11.418;2023-07-08T15:13:29;58.30;13.90
15013;DHT22;7603;49.432;11.418;2023-07-08T15:15:55;59.10;13.80
15013;DHT22;7603;49.432;11.418;2023-07-08T15:18:21;59.70;13.50
15013;DHT22;7603;49.432;11.418;2023-07-08T15:20:46;60.10;13.20
15013;DHT22;7603;49.432;11.418;2023-07-08T15:23:12;60.30;13.40
15013;DHT22;7603;49.432;11.418;2023-07-08T15:25:40;60.30;13.40
15013;DHT22;7603;49.432;11.418;2023-07-08T15:28:17;60.50;13.40
15013;DHT22;7603;49.432;11.418;2023-07-08T15:30:44;60.50;13.40
15013;DHT22;7603;49.432;11.418;2023-07-08T15:33:14;60.50;13.30
15013;DHT22;7603;49.432;11.418;2023-07-08T15:35:40;60.80;13.20
15013;DHT22;7603;49.432;11.418;2023-07-08T15:38:06;61.00;13.40
15013;DHT22;7603;49.432;11.418;2023-07-08T15:40:33;61.40;13.40
15013;DHT22;7603;49.432;11.418;2023-07-08T15:43:01;61.60;12.80
15013;DHT22;7603;49.432;11.418;2023-07-08T15:45:28;61.80;12.70
15013;DHT22;7603;49.432;11.418;2023-07-08T15:47:54;61.90;12.70
15013;DHT22;7603;49.432;11.418;2023-07-08T15:50:25;61.50;12.80
15013;DHT22;7603;49.432;11.418;2023-07-08T15:52:51;61.20;12.80
15013;DHT22;7603;49.432;11.418;2023-07-08T15:55:28;61.00;12.70
15013;DHT22;7603;49.432;11.418;2023-07-08T15:58:00;61.00;12.90
15013;DHT22;7603;49.432;11.418;2023-07-08T16:00:32;61.20;12.80
15013;DHT22;7603;49.432;11.418;2023-07-08T16:03:00;61.20;12.80
15013;DHT22;7603;49.432;11.418;2023-07-08T16:05:27;60.90;12.90
15013;DHT22;7603;49.432;11.418;2023-07-08T16:07:54;60.60;12.90
15013;DHT22;7603;49.432;11.418;2023-07-08T16:10:21;60.30;13.10
15013;DHT22;7603;49.432;11.418;2023-07-08T16:12:50;59.90;13.10
15013;DHT22;7603;49.432;11.418;2023-07-08T16:15:30;59.20;12.90
15013;DHT22;7603;49.432;11.418;2023-07-08T16:17:57;58.40;13.20
15013;DHT22;7603;49.432;11.418;2023-07-08T16:20:25;56.30;13.50
15013;DHT22;7603;49.432;11.418;2023-07-08T16:22:51;54.60;14.10
15013;DHT22;7603;49.432;11.418;2023-07-08T16:25:26;54.10;14.50